Time;durP1;ratioP1;P1;durP2;ratioP2;P2;SDS_P1;SDS_P2;PMS_P1;PMS_P2;Temp;Humidity;BMP_temperature;BMP_pressure;BME280_temperature;BME280_humidity;BME280_pressure;Samples;Min_cycle;Max_cycle;Signal;HPM_P1;HPM_P2
2023/07/05 00:01:34;;;;;;;23.90;15.00;;;;;;;19.99;48.13;99086.40;107818;1308;22389;-47
2023/07/05 00:03:59;;;;;;;25.80;14.50;;;;;;;19.96;48.05;99086.87;107830;1288;22230;-51
2023/07/05 00:06:24;;;;;;;33.70;14.70;;;;;;;19.95;48.14;99085.16;107798;1308;22361;-50
2023/07/05 00:08:50;;;;;;;25.30;14.90;;;;;;;19.93;47.96;99088.05;107825;1308;22622;-52
2023/07/05 00:11:16;;;;;;;22.20;14.10;;;;;;;19.92;48.42;99092.91;107811;1308;22251;-48
2023/07/05 00:13:42;;;;;;;23.20;14.70;;;;;;;19.91;48.33;99087.30;107826;1301;22255;-50
2023/07/05 00:16:09;;;;;;;24.20;14.80;;;;;;;19.88;48.33;99089.41;107810;1308;22208;-50
2023/07/05 00:18:36;;;;;;;24.50;14.00;;;;;;;19.86;48.41;99088.21;107822;1308;23004;-46
2023/07/05 00:21:04;;;;;;;26.10;14.10;;;;;;;19.84;48.53;99090.70;107827;1308;22469;-46
2023/07/05 00:23:32;;;;;;;22.10;14.30;;;;;;;19.84;48.06;99086.10;107820;1308;22298;-48
2023/07/05 00:25:57;;;;;;;23.30;14.10;;;;;;;19.81;48.30;99082.11;107831;1308;23201;-51
2023/07/05 00:28:23;;;;;;;25.60;15.00;;;;;;;19.79;48.13;99083.90;107824;1308;22283;-50
2023/07/05 00:30:48;;;;;;;18.70;12.80;;;;;;;19.75;48.12;99081.37;107850;1308;23012;-50
2023/07/05 00:33:14;;;;;;;21.30;13.80;;;;;;;19.74;47.99;99079.02;107827;1308;22182;-47
2023/07/05 00:35:50;;;;;;;26.80;13.70;;;;;;;19.73;48.32;99084.40;107795;1308;22297;-52
2023/07/05 00:38:17;;;;;;;31.20;14.30;;;;;;;19.71;47.93;99081.56;107833;1308;22253;-46
2023/07/05 00:40:42;;;;;;;20.20;12.80;;;;;;;19.69;47.90;99081.30;107840;1308;22518;-46
2023/07/05 00:43:08;;;;;;;20.80;13.10;;;;;;;19.67;48.00;99079.52;107815;1308;22224;-50
2023/07/05 00:45:54;;;;;;;19.80;12.50;;;;;;;19.64;48.11;99076.53;107842;1308;22207;-44
2023/07/05 00:48:24;;;;;;;26.30;12.90;;;;;;;19.61;48.70;99076.86;107819;1308;22237;-47
2023/07/05 00:50:53;;;;;;;22.70;12.70;;;;;;;19.60;48.57;99071.34;107798;1308;23006;-50
2023/07/05 00:53:19;;;;;;;23.00;12.70;;;;;;;19.59;48.74;99072.66;107820;1301;22255;-46
2023/07/05 00:55:49;;;;;;;20.00;12.30;;;;;;;19.54;48.63;99075.02;107806;1308;22230;-48
2023/07/05 00:58:15;;;;;;;20.20;11.80;;;;;;;19.50;49.25;99074.72;107821;1308;22979;-45
2023/07/05 01:00:41;;;;;;;17.90;11.80;;;;;;;19.48;49.35;99076.98;107807;1308;22345;-46
2023/07/05 01:03:10;;;;;;;22.20;12.70;;;;;;;19.47;49.63;99079.25;107802;1308;22191;-48
2023/07/05 01:05:36;;;;;;;21.50;11.70;;;;;;;19.46;49.92;99080.96;107808;1308;22449;-49
2023/07/05 01:08:04;;;;;;;22.20;12.50;;;;;;;19.43;50.11;99082.33;107823;1308;23057;-48
2023/07/05 01:10:30;;;;;;;18.90;12.00;;;;;;;19.40;50.28;99080.66;107827;1308;22206;-47
2023/07/05 01:13:07;;;;;;;18.70;11.50;;;;;;;19.37;50.24;99079.86;107804;1308;22287;-46
2023/07/05 01:16:11;;;;;;;16.80;11.20;;;;;;;19.35;50.34;99080.80;107809;1308;22237;-51
2023/07/05 01:18:51;;;;;;;18.60;11.80;;;;;;;19.30;50.65;99080.02;107795;1308;22246;-48
2023/07/05 01:21:30;;;;;;;23.00;12.30;;;;;;;19.28;50.61;99082.02;107839;1308;22458;-50
2023/07/05 01:24:11;;;;;;;23.70;12.20;;;;;;;19.25;50.38;99082.79;107830;1308;23000;-45
2023/07/05 01:26:38;;;;;;;22.80;11.50;;;;;;;19.22;50.42;99079.73;107796;1308;22963;-44
2023/07/05 01:29:35;;;;;;;19.70;11.70;;;;;;;19.21;49.99;99081.70;107700;1308;22931;-49
2023/07/05 01:32:29;;;;;;;21.40;12.90;;;;;;;19.19;50.81;99082.80;107815;1308;23062;-48
2023/07/05 01:35:23;;;;;;;22.00;11.60;;;;;;;19.14;51.22;99079.68;107813;1308;22388;-51
2023/07/05 01:37:48;;;;;;;20.20;11.70;;;;;;;19.11;51.28;99079.27;107208;1314;23057;-47
2023/07/05 01:40:25;;;;;;;23.00;12.10;;;;;;;19.09;51.26;99079.29;107226;1314;22258;-50
2023/07/05 01:42:55;;;;;;;27.10;12.40;;;;;;;19.08;50.99;99080.80;107210;1314;22363;-46
2023/07/05 01:45:26;;;;;;;23.90;12.20;;;;;;;19.06;50.93;99081.48;107187;1314;22262;-51
2023/07/05 01:48:03;;;;;;;19.00;11.30;;;;;;;19.03;51.34;99080.38;107230;1314;22264;-50
2023/07/05 01:50:41;;;;;;;16.90;12.50;;;;;;;19.01;51.65;99078.63;107218;1314;22253;-49
2023/07/05 01:53:24;;;;;;;21.20;11.60;;;;;;;18.99;51.54;99077.02;107228;1314;22298;-44
2023/07/05 01:56:05;;;;;;;22.20;11.90;;;;;;;18.97;51.33;99079.70;107208;1314;22256;-51
2023/07/05 01:58:35;;;;;;;20.20;12.50;;;;;;;18.97;51.24;99078.29;107204;1314;22263;-46
2023/07/05 02:01:04;;;;;;;20.90;11.50;;;;;;;18.96;51.64;99079.23;107190;1314;22282;-45
2023/07/05 02:03:30;;;;;;;22.60;11.00;;;;;;;18.96;51.50;99084.21;107203;1314;22247;-50
2023/07/05 02:05:56;;;;;;;20.90;11.40;;;;;;;18.93;51.75;99079.88;107208;1314;22338;-50
2023/07/05 02:08:27;;;;;;;18.50;11.40;;;;;;;18.90;51.87;99081.96;107239;1314;22282;-49
2023/07/05 02:10:53;;;;;;;21.10;11.50;;;;;;;18.89;51.89;99082.98;107134;1314;23098;-47
2023/07/05 02:13:18;;;;;;;20.90;11.10;;;;;;;18.89;51.93;99084.00;107215;1314;23048;-44
2023/07/05 02:15:46;;;;;;;19.50;10.90;;;;;;;18.88;51.95;99079.19;107591;1309;22311;-47
2023/07/05 02:18:11;;;;;;;14.70;10.60;;;;;;;18.85;51.93;99076.08;107709;1309;22883;-45
2023/07/05 02:20:36;;;;;;;19.50;11.00;;;;;;;18.83;51.94;99076.76;107716;1309;22241;-47
2023/07/05 02:23:02;;;;;;;22.20;10.90;;;;;;;18.83;52.04;99076.98;107705;1309;22262;-49
2023/07/05 02:25:27;;;;;;;19.70;10.50;;;;;;;18.83;51.98;99075.38;107710;1309;23319;-51
2023/07/05 02:27:53;;;;;;;21.00;10.80;;;;;;;18.85;51.60;99073.06;107702;1309;22250;-45
2023/07/05 02:30:18;;;;;;;19.50;11.00;;;;;;;18.85;52.32;99073.39;107684;1309;22655;-44
2023/07/05 02:32:44;;;;;;;16.90;10.60;;;;;;;18.85;51.58;99072.63;107700;1309;22388;-43
2023/07/05 02:35:09;;;;;;;18.40;10.30;;;;;;;18.85;52.11;99073.44;107694;1309;22249;-43
2023/07/05 02:37:35;;;;;;;16.90;10.30;;;;;;;18.82;52.38;99071.30;107676;1309;22533;-46
2023/07/05 02:40:01;;;;;;;19.60;10.30;;;;;;;18.80;52.40;99067.19;107692;1309;22985;-50
2023/07/05 02:44:00;;;;;;;19.50;10.30;;;;;;;18.81;52.17;99068.38;106364;1308;558087;-45
2023/07/05 02:46:29;;;;;;;21.40;10.80;;;;;;;18.74;52.88;99067.55;107708;1310;22264;-44
2023/07/05 02:48:57;;;;;;;21.10;9.90;;;;;;;18.71;52.95;99069.97;107736;1310;22240;-44
2023/07/05 02:51:22;;;;;;;13.50;9.40;;;;;;;18.69;53.03;99070.35;107725;1310;22240;-47
2023/07/05 02:53:48;;;;;;;16.40;9.80;;;;;;;18.69;52.92;99073.54;107726;1310;22250;-49
2023/07/05 02:56:14;;;;;;;17.20;9.50;;;;;;;18.70;52.75;99072.98;107558;1308;203247;-46
2023/07/05 02:58:39;;;;;;;16.00;9.70;;;;;;;18.69;53.03;99074.31;107934;1307;22545;-45
2023/07/05 03:01:05;;;;;;;16.00;10.00;;;;;;;18.68;53.31;99074.61;107920;1307;22248;-52
2023/07/05 03:03:31;;;;;;;20.40;9.50;;;;;;;18.66;53.36;99070.99;107956;1302;22907;-49
2023/07/05 03:05:58;;;;;;;22.20;10.10;;;;;;;18.67;53.14;99074.70;107907;1307;22863;-49
2023/07/05 03:08:25;;;;;;;16.70;9.70;;;;;;;18.65;53.57;99074.27;107932;1307;22372;-48
2023/07/05 03:10:55;;;;;;;18.30;9.20;;;;;;;18.66;53.22;99072.98;107925;1307;22483;-45
2023/07/05 03:13:29;;;;;;;20.70;9.30;;;;;;;18.66;53.43;99075.11;107808;1308;23175;-47
2023/07/05 03:15:55;;;;;;;17.10;9.00;;;;;;;18.66;53.11;99074.18;107911;1307;22430;-47
2023/07/05 03:18:21;;;;;;;17.00;9.60;;;;;;;18.68;53.02;99075.83;107905;1308;22262;-49
2023/07/05 03:20:47;;;;;;;17.40;9.50;;;;;;;18.69;53.16;99073.91;107910;1308;22244;-48
2023/07/05 03:23:13;;;;;;;14.90;9.20;;;;;;;18.70;53.49;99078.63;107926;1307;22220;-45
2023/07/05 03:25:39;;;;;;;19.30;9.40;;;;;;;18.70;54.05;99081.86;107919;1308;22499;-50
2023/07/05 03:28:04;;;;;;;17.40;9.50;;;;;;;18.70;53.02;99083.61;107923;1308;22516;-50
2023/07/05 03:30:31;;;;;;;20.30;9.40;;;;;;;18.72;53.83;99081.30;107900;1307;22487;-47
2023/07/05 03:32:56;;;;;;;19.30;9.20;;;;;;;18.73;54.30;99078.53;107897;1307;23204;-48
2023/07/05 03:35:22;;;;;;;14.20;8.90;;;;;;;18.76;53.74;99079.49;107909;1308;23050;-48
2023/07/05 03:37:47;;;;;;;15.80;9.60;;;;;;;18.78;53.77;99081.10;107916;1308;22259;-47
2023/07/05 03:40:12;;;;;;;16.80;9.10;;;;;;;18.78;52.81;99079.99;107958;1308;22431;-48
2023/07/05 03:42:38;;;;;;;18.50;9.40;;;;;;;18.78;53.01;99084.14;107893;1308;22267;-50
2023/07/05 03:45:03;;;;;;;21.60;9.30;;;;;;;18.82;53.18;99078.87;107930;1307;22514;-51
2023/07/05 03:47:29;;;;;;;18.70;9.00;;;;;;;18.84;53.06;99084.50;107903;1308;22590;-50
2023/07/05 03:49:55;;;;;;;15.70;9.00;;;;;;;18.87;53.43;99088.46;107924;1307;22264;-49
2023/07/05 03:52:20;;;;;;;18.30;8.60;;;;;;;18.90;53.33;99086.77;107928;1307;22268;-47
2023/07/05 03:54:45;;;;;;;14.40;8.30;;;;;;;18.93;52.64;99085.59;107886;1308;22480;-46
2023/07/05 03:57:10;;;;;;;17.40;8.80;;;;;;;18.95;52.83;99085.75;107876;1308;22293;-44
2023/07/05 03:59:36;;;;;;;18.40;9.10;;;;;;;18.98;53.09;99084.58;107872;1308;22240;-50
2023/07/05 04:02:01;;;;;;;14.50;8.50;;;;;;;19.01;52.58;99080.95;107867;1307;22424;-44
2023/07/05 04:04:27;;;;;;;19.40;8.80;;;;;;;19.02;52.55;99079.40;107872;1308;22262;-51
2023/07/05 04:06:52;;;;;;;14.50;9.50;;;;;;;19.05;52.85;99080.28;107886;1308;22403;-48
2023/07/05 04:09:17;;;;;;;20.10;9.90;;;;;;;19.08;52.74;99078.66;107882;1308;22346;-46
2023/07/05 04:11:43;;;;;;;20.20;9.60;;;;;;;19.11;52.29;99082.36;107871;1308;23458;-47
2023/07/05 04:14:08;;;;;;;20.10;9.50;;;;;;;19.13;52.73;99086.75;107887;1308;24241;-50
2023/07/05 04:16:34;;;;;;;17.40;9.50;;;;;;;19.16;52.60;99087.17;107877;1308;22418;-50
2023/07/05 04:18:59;;;;;;;15.60;9.50;;;;;;;19.18;52.38;99091.35;107852;1308;23429;-47
2023/07/05 04:21:26;;;;;;;16.90;10.20;;;;;;;19.22;52.38;99089.31;107857;1308;22327;-44
2023/07/05 04:23:52;;;;;;;12.60;9.10;;;;;;;19.23;52.27;99088.10;107859;1308;22421;-49
2023/07/05 04:26:23;;;;;;;24.90;10.10;;;;;;;19.25;52.66;99085.23;107847;1308;22228;-51
2023/07/05 04:28:49;;;;;;;19.60;9.70;;;;;;;19.29;52.33;99084.20;107878;1308;22494;-50
2023/07/05 04:31:18;;;;;;;17.40;9.90;;;;;;;19.31;52.09;99084.15;107838;1308;22418;-48
2023/07/05 04:33:44;;;;;;;18.50;9.60;;;;;;;19.35;52.33;99086.47;107858;1308;22313;-48
2023/07/05 04:36:10;;;;;;;24.60;11.00;;;;;;;19.38;52.39;99082.57;107886;1308;22340;-45
2023/07/05 04:38:35;;;;;;;16.80;9.70;;;;;;;19.42;51.93;99086.48;107886;1308;22515;-46
2023/07/05 04:41:00;;;;;;;19.40;9.70;;;;;;;19.46;51.68;99086.64;107858;1308;22252;-49
2023/07/05 04:43:27;;;;;;;22.50;9.80;;;;;;;19.50;51.32;99085.69;107810;1305;22273;-45
2023/07/05 04:45:57;;;;;;;17.60;9.90;;;;;;;19.54;51.62;99084.64;107848;1308;22511;-46
2023/07/05 04:48:23;;;;;;;19.50;10.00;;;;;;;19.59;51.51;99086.00;107848;1308;22217;-45
2023/07/05 04:50:52;;;;;;;25.70;9.60;;;;;;;19.62;51.15;99088.86;107843;1308;22222;-50
2023/07/05 04:53:19;;;;;;;15.80;9.30;;;;;;;19.65;50.70;99086.05;107832;1308;22264;-45
2023/07/05 04:55:49;;;;;;;20.50;8.40;;;;;;;19.69;50.50;99081.09;107834;1308;23205;-51
2023/07/05 04:58:15;;;;;;;15.60;9.10;;;;;;;19.74;50.41;99082.07;107850;1308;23309;-50
2023/07/05 05:00:46;;;;;;;20.20;9.90;;;;;;;19.79;50.75;99082.83;107887;1308;22343;-50
2023/07/05 05:03:14;;;;;;;22.40;10.70;;;;;;;19.83;50.40;99082.63;107827;1308;22192;-48
2023/07/05 05:05:41;;;;;;;20.70;9.80;;;;;;;19.87;50.55;99085.41;107824;1308;22779;-46
2023/07/05 05:08:07;;;;;;;23.30;9.80;;;;;;;19.90;51.60;99087.54;107825;1308;22299;-48
2023/07/05 05:10:35;;;;;;;33.80;10.40;;;;;;;19.94;50.20;99085.98;107826;1308;22543;-44
2023/07/05 05:13:00;;;;;;;16.10;9.30;;;;;;;19.98;50.44;99086.16;107820;1308;22260;-48
2023/07/05 05:15:25;;;;;;;20.50;9.70;;;;;;;20.01;50.55;99088.38;107848;1308;22352;-49
2023/07/05 05:17:51;;;;;;;17.70;9.40;;;;;;;20.04;50.19;99088.23;107823;1308;22238;-50
2023/07/05 05:20:17;;;;;;;23.10;9.10;;;;;;;20.09;49.93;99088.44;107829;1308;22518;-46
2023/07/05 05:22:42;;;;;;;16.80;9.60;;;;;;;20.13;49.73;99087.29;107837;1308;22244;-46
2023/07/05 05:25:07;;;;;;;18.70;9.40;;;;;;;20.18;49.59;99089.50;107848;1308;22255;-49
2023/07/05 05:27:33;;;;;;;15.30;9.20;;;;;;;20.21;49.56;99090.44;107843;1308;22320;-47
2023/07/05 05:29:58;;;;;;;20.90;9.80;;;;;;;20.25;49.32;99085.20;107839;1308;22349;-50
2023/07/05 05:32:23;;;;;;;24.70;9.60;;;;;;;20.29;49.17;99087.48;107084;1308;22562;-46
2023/07/05 05:34:48;;;;;;;18.20;9.30;;;;;;;20.35;49.18;99091.07;107757;1308;22390;-47
2023/07/05 05:37:14;;;;;;;18.50;9.90;;;;;;;20.39;48.87;99090.84;107821;1308;23210;-46
2023/07/05 05:39:39;;;;;;;17.30;8.80;;;;;;;20.44;48.67;99094.80;107822;1308;22446;-47
2023/07/05 05:42:04;;;;;;;18.70;8.50;;;;;;;20.50;48.48;99095.28;107818;1308;23318;-45
2023/07/05 05:44:30;;;;;;;19.90;9.00;;;;;;;20.56;48.41;99089.35;107815;1308;22281;-51
2023/07/05 05:46:55;;;;;;;21.50;9.20;;;;;;;20.62;48.40;99086.80;107830;1308;23365;-50
2023/07/05 05:49:20;;;;;;;20.70;9.10;;;;;;;20.68;48.11;99082.38;107821;1308;22439;-48
2023/07/05 05:51:45;;;;;;;21.00;9.40;;;;;;;20.74;48.01;99077.21;107836;1308;23743;-48
2023/07/05 05:54:11;;;;;;;24.60;9.70;;;;;;;20.81;47.64;99077.07;107828;1308;23366;-52
2023/07/05 05:56:36;;;;;;;27.00;9.00;;;;;;;20.88;47.77;99079.70;107836;1308;22207;-49
2023/07/05 05:59:02;;;;;;;26.80;9.90;;;;;;;20.96;47.46;99078.50;107824;1308;22257;-52
2023/07/05 06:01:28;;;;;;;20.90;10.10;;;;;;;21.03;47.00;99079.23;107828;1308;22189;-51
2023/07/05 06:03:53;;;;;;;19.30;9.90;;;;;;;21.12;47.13;99077.67;107661;1308;22634;-45
2023/07/05 06:06:19;;;;;;;20.20;10.40;;;;;;;21.19;46.89;99078.18;107816;1308;22346;-44
2023/07/05 06:08:44;;;;;;;16.60;10.10;;;;;;;21.24;46.51;99073.54;107715;1308;22328;-50
2023/07/05 06:11:09;;;;;;;19.30;10.10;;;;;;;21.30;46.59;99072.56;107518;1308;24748;-43
2023/07/05 06:13:34;;;;;;;18.30;10.60;;;;;;;21.34;46.57;99073.02;106776;1308;22549;-49
2023/07/05 06:16:02;;;;;;;23.20;11.30;;;;;;;21.39;46.70;99074.83;107563;1308;22271;-48
2023/07/05 06:18:28;;;;;;;22.00;11.60;;;;;;;21.43;46.59;99074.40;107773;1302;22469;-45
2023/07/05 06:20:53;;;;;;;20.20;11.20;;;;;;;21.45;46.62;99073.83;107601;1298;22240;-44
2023/07/05 06:23:19;;;;;;;22.80;12.30;;;;;;;21.51;46.72;99073.43;107727;1308;23220;-48
2023/07/05 06:25:49;;;;;;;21.60;11.10;;;;;;;21.55;46.42;99073.39;107807;1308;22277;-51
2023/07/05 06:28:16;;;;;;;21.10;11.10;;;;;;;21.61;46.33;99070.05;107758;1308;22267;-45
2023/07/05 06:30:42;;;;;;;18.90;11.20;;;;;;;21.67;45.93;99062.98;107745;1309;22430;-46
2023/07/05 06:33:07;;;;;;;22.30;11.10;;;;;;;21.76;46.11;99063.48;107800;1308;22572;-44
2023/07/05 06:35:33;;;;;;;18.80;12.10;;;;;;;21.84;45.79;99060.91;107747;1308;22275;-50
2023/07/05 06:37:58;;;;;;;20.10;11.40;;;;;;;21.93;45.56;99063.68;107791;1308;22241;-46
2023/07/05 06:40:24;;;;;;;20.70;10.90;;;;;;;22.00;45.19;99062.56;107753;1308;22240;-47
2023/07/05 06:42:49;;;;;;;22.20;11.40;;;;;;;22.03;44.71;99063.30;107672;1309;22328;-49
2023/07/05 06:45:14;;;;;;;19.40;11.10;;;;;;;22.07;44.51;99060.27;107754;1305;24362;-49
2023/07/05 06:47:41;;;;;;;20.00;10.70;;;;;;;22.10;44.79;99057.36;107708;1308;22246;-46
2023/07/05 06:50:08;;;;;;;17.10;11.50;;;;;;;22.14;44.92;99056.41;107777;1308;22542;-47
2023/07/05 06:52:33;;;;;;;19.50;10.70;;;;;;;22.18;45.04;99053.85;107767;1308;22412;-48
2023/07/05 06:54:58;;;;;;;17.30;11.10;;;;;;;22.22;44.86;99052.69;107755;1302;22400;-51
2023/07/05 06:57:24;;;;;;;22.50;11.20;;;;;;;22.29;44.94;99052.73;107846;1308;22404;-50
2023/07/05 06:59:50;;;;;;;16.80;11.50;;;;;;;22.36;44.73;99052.73;107772;1302;23513;-50
2023/07/05 07:02:15;;;;;;;27.40;12.50;;;;;;;22.42;44.54;99047.22;107791;1308;22422;-48
2023/07/05 07:04:40;;;;;;;24.20;11.40;;;;;;;22.49;44.39;99048.55;107786;1308;22248;-46
2023/07/05 07:07:06;;;;;;;23.70;12.40;;;;;;;22.55;43.80;99043.77;107736;1308;22348;-46
2023/07/05 07:09:33;;;;;;;21.50;11.40;;;;;;;22.63;43.45;99042.19;107794;1308;23094;-51
2023/07/05 07:11:58;;;;;;;24.30;11.40;;;;;;;22.72;43.49;99042.38;107778;1308;21809;-51
2023/07/05 07:14:24;;;;;;;23.00;11.20;;;;;;;22.82;43.23;99048.20;107769;1308;22420;-48
2023/07/05 07:16:49;;;;;;;20.20;11.50;;;;;;;22.90;42.88;99046.24;107788;1308;22176;-51
2023/07/05 07:19:14;;;;;;;20.20;12.30;;;;;;;22.97;42.37;99040.03;107771;1308;22441;-53
2023/07/05 07:21:39;;;;;;;22.60;11.70;;;;;;;23.07;42.83;99032.30;107811;1308;23267;-50
2023/07/05 07:24:05;;;;;;;71.30;14.40;;;;;;;23.15;42.84;99034.92;107780;1308;22411;-51
2023/07/05 07:26:31;;;;;;;18.80;11.90;;;;;;;23.23;42.31;99036.48;107766;1308;22245;-51
2023/07/05 07:28:56;;;;;;;19.70;11.00;;;;;;;23.32;42.14;99031.62;107820;1301;22396;-52
2023/07/05 07:31:27;;;;;;;20.20;11.60;;;;;;;23.41;42.47;99029.74;107782;1308;22415;-51
2023/07/05 07:33:53;;;;;;;18.10;11.90;;;;;;;23.52;42.07;99028.45;107830;1302;23374;-47
2023/07/05 07:36:24;;;;;;;19.80;12.10;;;;;;;23.63;41.48;99025.45;107799;1308;22248;-50
2023/07/05 07:38:50;;;;;;;26.80;12.80;;;;;;;23.76;42.01;99028.98;107784;1308;22486;-50
2023/07/05 07:41:25;;;;;;;26.60;11.70;;;;;;;23.86;40.62;99031.77;107817;1305;23108;-47
2023/07/05 07:43:52;;;;;;;21.40;11.70;;;;;;;23.93;40.54;99030.88;107806;1301;22375;-52
2023/07/05 07:46:19;;;;;;;24.70;11.70;;;;;;;24.02;39.87;99030.31;107785;1308;22198;-50
2023/07/05 07:48:47;;;;;;;18.30;12.00;;;;;;;24.05;39.77;99029.38;107823;1302;22968;-49
2023/07/05 07:51:12;;;;;;;;;;;;;;;24.08;39.22;99030.94;107767;1308;22748;-51
2023/07/05 07:53:38;;;;;;;17.90;12.10;;;;;;;24.12;39.71;99032.60;107809;1305;23214;-49
2023/07/05 07:56:12;;;;;;;15.70;10.90;;;;;;;24.16;38.95;99027.17;107802;1308;22790;-50
2023/07/05 07:58:37;;;;;;;26.50;12.90;;;;;;;24.22;38.13;99024.95;107791;1308;23257;-47
2023/07/05 08:01:17;;;;;;;19.10;11.80;;;;;;;24.33;38.80;99023.02;107850;1308;23157;-51
2023/07/05 08:03:43;;;;;;;25.50;13.50;;;;;;;24.48;39.28;99021.65;107735;1308;22372;-48
2023/07/05 08:06:09;;;;;;;24.50;12.40;;;;;;;24.62;38.57;99019.95;107800;1308;22307;-48
2023/07/05 08:08:36;;;;;;;22.70;12.20;;;;;;;24.73;38.43;99020.74;107777;1301;22251;-48
2023/07/05 08:11:02;;;;;;;18.60;12.20;;;;;;;24.90;38.74;99028.18;107823;1308;22275;-48
2023/07/05 08:13:30;;;;;;;21.60;13.00;;;;;;;25.11;37.63;99026.23;107765;1308;22277;-49
2023/07/05 08:15:55;;;;;;;20.50;12.00;;;;;;;25.32;38.00;99023.33;107832;1308;22213;-53
2023/07/05 08:18:20;;;;;;;16.00;11.70;;;;;;;25.54;37.75;99017.86;107811;1300;22451;-50
2023/07/05 08:20:46;;;;;;;19.80;12.60;;;;;;;25.73;36.62;99015.36;107770;1301;22509;-48
2023/07/05 08:23:11;;;;;;;19.10;12.30;;;;;;;25.85;37.11;99014.01;107802;1308;22206;-45
2023/07/05 08:25:39;;;;;;;19.10;12.10;;;;;;;25.95;36.69;99016.96;107768;1308;22212;-50
2023/07/05 08:28:05;;;;;;;21.80;12.10;;;;;;;26.04;37.24;99014.98;107785;1308;22216;-52
2023/07/05 08:30:31;;;;;;;19.10;11.80;;;;;;;26.12;36.69;99012.11;107773;1308;22022;-52
2023/07/05 08:32:57;;;;;;;24.40;12.80;;;;;;;26.19;36.41;99009.05;107800;1286;22224;-48
2023/07/05 08:35:22;;;;;;;17.00;11.90;;;;;;;26.32;36.88;99005.47;107827;1301;22225;-46
2023/07/05 08:37:48;;;;;;;22.10;12.00;;;;;;;26.58;36.14;99006.15;107803;1302;22413;-49
2023/07/05 08:40:15;;;;;;;21.20;12.40;;;;;;;26.82;35.12;99008.69;107793;1308;22626;-55
2023/07/05 08:42:50;;;;;;;;;;;;;;;27.00;35.15;99001.86;107840;1304;22429;-54
2023/07/05 08:45:28;;;;;;;22.10;11.10;;;;;;;27.18;34.72;99004.79;107782;1308;22372;-48
2023/07/05 08:48:00;;;;;;;17.10;11.30;;;;;;;27.32;33.90;99000.34;107789;1308;22288;-49
2023/07/05 08:50:30;;;;;;;17.70;11.00;;;;;;;27.49;34.72;99002.25;107821;1308;22237;-49
2023/07/05 08:53:08;;;;;;;22.60;11.70;;;;;;;27.66;33.99;98994.52;107801;1308;22270;-49
2023/07/05 08:55:46;;;;;;;15.00;10.60;;;;;;;27.77;34.24;98990.23;107814;1305;22963;-52
2023/07/05 08:58:24;;;;;;;17.00;11.30;;;;;;;27.92;33.47;98993.74;107795;1308;22252;-49
2023/07/05 09:00:56;;;;;;;15.60;10.00;;;;;;;28.00;33.89;98995.55;107846;1302;22902;-53
2023/07/05 09:03:23;;;;;;;26.20;11.10;;;;;;;27.92;33.58;98997.27;107766;1308;22479;-52
2023/07/05 09:06:09;;;;;;;17.10;9.80;;;;;;;27.90;33.84;98991.73;107811;1308;22180;-55
2023/07/05 09:08:37;;;;;;;14.70;9.60;;;;;;;28.08;34.43;98985.11;107816;1308;22239;-49
2023/07/05 09:11:13;;;;;;;18.10;10.20;;;;;;;28.30;34.60;98981.86;107791;1308;22367;-50
2023/07/05 09:13:41;;;;;;;17.70;10.30;;;;;;;28.62;34.31;98974.14;107700;1308;22453;-53
2023/07/05 09:16:18;;;;;;;15.00;9.00;;;;;;;28.84;33.08;98978.73;107823;1305;22894;-53
2023/07/05 09:19:02;;;;;;;12.60;7.90;;;;;;;28.93;32.89;98978.21;107796;1308;22252;-49
2023/07/05 09:21:39;;;;;;;24.20;8.20;;;;;;;29.20;33.13;98976.04;107722;1308;22489;-47
2023/07/05 09:24:20;;;;;;;13.10;8.60;;;;;;;29.52;32.10;98972.21;107800;1308;22397;-52
2023/07/05 09:26:55;;;;;;;13.40;8.60;;;;;;;29.73;31.46;98966.48;107847;1308;22249;-51
2023/07/05 09:29:26;;;;;;;14.20;9.60;;;;;;;30.00;30.82;98967.25;107776;1308;22266;-54
2023/07/05 09:31:53;;;;;;;9.60;8.40;;;;;;;30.23;30.66;98963.20;107805;1308;22301;-51
2023/07/05 09:34:39;;;;;;;;;;;;;;;30.62;30.11;98963.55;107811;1301;22523;-55
2023/07/05 09:37:19;;;;;;;14.00;8.10;;;;;;;30.99;29.45;98966.88;107768;1308;22750;-51
2023/07/05 09:39:47;;;;;;;20.10;8.60;;;;;;;31.40;28.79;98965.46;107745;1301;22441;-52
2023/07/05 09:42:21;;;;;;;15.70;8.00;;;;;;;31.85;28.07;98966.71;107820;1308;22498;-54
2023/07/05 09:44:47;;;;;;;12.90;7.60;;;;;;;32.39;27.46;98969.08;107787;1302;23313;-50
2023/07/05 09:47:12;;;;;;;12.70;8.40;;;;;;;32.74;27.34;98968.72;107827;1302;22220;-53
2023/07/05 09:49:37;;;;;;;14.50;8.40;;;;;;;32.71;27.11;98971.32;107764;1308;23277;-52
2023/07/05 09:52:10;;;;;;;12.40;8.40;;;;;;;32.48;27.61;98964.23;107757;1308;22323;-52
2023/07/05 09:54:37;;;;;;;17.80;8.50;;;;;;;32.26;28.01;98958.38;107803;1308;22318;-53
2023/07/05 09:57:06;;;;;;;15.70;8.60;;;;;;;32.06;28.05;98959.22;107766;1308;22462;-50
2023/07/05 09:59:33;;;;;;;13.90;8.60;;;;;;;32.06;28.69;98958.84;107835;1308;22302;-51
2023/07/05 10:02:14;;;;;;;13.90;7.80;;;;;;;32.22;28.29;98956.92;107768;1308;22197;-51
2023/07/05 10:04:52;;;;;;;14.80;8.50;;;;;;;32.36;28.04;98954.85;107768;1301;22208;-52
2023/07/05 10:07:30;;;;;;;17.20;8.60;;;;;;;32.70;27.52;98948.75;107820;1308;22382;-52
2023/07/05 10:09:57;;;;;;;9.90;7.10;;;;;;;33.39;27.25;98945.39;107782;1301;22422;-52
2023/07/05 10:12:35;;;;;;;12.20;7.40;;;;;;;33.99;26.09;98941.57;107777;1308;22738;-52
2023/07/05 10:15:01;;;;;;;8.90;6.70;;;;;;;34.37;25.60;98944.98;107839;1308;22500;-53
2023/07/05 10:17:47;;;;;;;22.20;7.40;;;;;;;34.91;25.34;98943.85;107756;1308;22251;-51
2023/07/05 10:20:20;;;;;;;11.80;7.60;;;;;;;35.03;24.75;98946.05;107787;1308;22282;-52
2023/07/05 10:22:46;;;;;;;11.30;6.60;;;;;;;34.89;24.93;98946.18;107808;1308;22996;-49
2023/07/05 10:25:18;;;;;;;14.60;6.10;;;;;;;34.78;25.55;98939.91;107796;1308;22266;-52
2023/07/05 10:27:48;;;;;;;9.20;6.10;;;;;;;34.46;25.07;98935.72;107818;1308;23005;-50
2023/07/05 10:30:16;;;;;;;14.80;6.20;;;;;;;34.14;25.28;98931.03;107780;1308;22271;-46
2023/07/05 10:33:08;;;;;;;7.90;6.00;;;;;;;33.96;25.91;98931.10;107765;1305;22346;-48
2023/07/05 10:35:43;;;;;;;12.50;6.50;;;;;;;33.45;26.37;98931.20;107823;1308;22427;-52
2023/07/05 10:38:19;;;;;;;9.40;5.50;;;;;;;33.05;27.02;98925.89;107763;1302;23146;-49
2023/07/05 10:40:46;;;;;;;7.90;6.60;;;;;;;32.53;27.48;98924.67;107788;1308;22471;-50
2023/07/05 10:43:12;;;;;;;8.20;6.30;;;;;;;31.96;27.78;98915.76;107841;1308;22255;-51
2023/07/05 10:45:37;;;;;;;10.00;6.00;;;;;;;31.94;28.50;98911.36;107769;1308;22915;-50
2023/07/05 10:48:03;;;;;;;10.70;6.30;;;;;;;32.08;28.41;98906.85;107803;1308;22245;-48
2023/07/05 10:50:33;;;;;;;11.30;6.30;;;;;;;32.10;28.42;98907.02;107839;1308;22248;-51
2023/07/05 10:53:15;;;;;;;10.10;5.90;;;;;;;32.07;28.54;98906.23;107760;1308;22246;-52
2023/07/05 10:55:52;;;;;;;10.30;5.50;;;;;;;32.65;27.84;98907.29;107766;1308;22244;-48
2023/07/05 10:58:20;;;;;;;8.30;5.40;;;;;;;33.05;26.87;98901.34;107801;1308;22257;-54
2023/07/05 11:01:21;;;;;;;9.20;5.10;;;;;;;33.48;26.23;98896.17;107799;1308;22228;-47
2023/07/05 11:03:51;;;;;;;7.60;4.40;;;;;;;33.97;25.05;98894.16;107183;1314;22250;-50
2023/07/05 11:06:17;;;;;;;10.60;4.70;;;;;;;34.53;24.79;98896.10;107170;1311;22461;-50
2023/07/05 11:08:45;;;;;;;6.00;4.30;;;;;;;35.09;24.44;98893.27;107199;1310;22290;-52
2023/07/05 11:11:23;;;;;;;10.90;4.30;;;;;;;35.49;23.76;98889.30;107120;1301;22414;-55
2023/07/05 11:13:50;;;;;;;6.00;4.00;;;;;;;35.82;23.17;98887.38;107185;1314;22320;-52
2023/07/05 11:16:21;;;;;;;12.50;4.20;;;;;;;36.26;23.32;98888.18;107199;1314;22500;-47
2023/07/05 11:18:48;;;;;;;7.20;3.50;;;;;;;36.72;22.56;98896.65;107207;1311;22151;-54
2023/07/05 11:21:44;;;;;;;7.80;3.80;;;;;;;36.30;22.78;98886.53;107216;1309;22289;-49
2023/07/05 11:24:13;;;;;;;4.20;3.60;;;;;;;36.03;23.28;98881.83;107207;1314;22281;-53